Latest Weather Observations for Scotts Peak

IDT60801

Issued at 8:01 pm EST Sunday 2 August 2015 (issued every 30 minutes, with the page automatically refreshed every 10 minutes)

About weather observations | Map of weather stations | Latest weather observations for TAS | Other Formats
Station Details ID: 097083 Name: SCOTTS PEAK DAM Lat: -43.04 Lon: 146.27 Height: 408.0 m
Data from the previous 72 hours. | See also: Recent months at Scotts Peak
Date/Time
EST
Temp
°C
App
Temp
°C
Dew
Point
Rel
Hum
%
Delta-T
°C
Wind Press
QNH
hPa
Press
MSL
hPa
Rain
since 9 am
mm
Dir
 
Spd
km/h
Gust
km/h
Spd
kts
Gust
kts
02/08:00pm 1.4 -11.0 1.3 99 0.0 NW 56 69 30 37 - - 17.0
02/07:30pm 1.3 -8.9 1.2 99 0.0 NNW 44 56 24 30 - - 17.0
02/07:00pm 1.1 -10.2 1.0 99 0.0 NW 50 69 27 37 - - 17.0
02/06:44pm 0.8 -9.5 0.5 98 0.1 NW 44 63 24 34 - - 16.8
02/06:30pm 1.3 -8.4 0.7 96 0.2 NW 41 54 22 29 - - 16.6
02/06:00pm 1.3 -10.0 1.0 98 0.1 NW 50 63 27 34 - - 16.6
02/05:33pm 1.1 -9.9 1.0 99 0.0 NW 48 69 26 37 - - 16.2
02/05:30pm 0.9 -9.7 0.8 99 0.0 NW 46 59 25 32 - - 16.2
02/05:00pm 0.9 -11.8 0.8 99 0.0 NW 57 76 31 41 - - 15.6
02/04:34pm 0.8 -11.0 0.4 97 0.2 WNW 52 70 28 38 - - 15.2
02/04:30pm 0.6 -10.5 -0.1 95 0.3 WNW 48 69 26 37 - - 15.2
02/04:25pm 1.5 -7.4 0.9 96 0.2 NW 37 65 20 35 - - 15.2
02/04:00pm 1.7 -7.1 1.6 99 0.0 NW 37 56 20 30 - - 15.2
02/03:58pm 1.7 -6.3 1.6 99 0.0 NW 33 52 18 28 - - 15.2
02/03:30pm 1.6 -4.7 1.5 99 0.0 NW 24 30 13 16 - - 15.2
02/03:00pm 2.2 -4.0 2.1 99 0.0 NW 24 32 13 17 - - 15.2
02/02:30pm 0.9 -8.0 0.8 99 0.0 NW 37 46 20 25 - - 14.4
02/02:00pm 0.2 -7.8 0.1 99 0.0 WNW 32 46 17 25 - - 14.0
02/01:30pm 0.5 -7.1 0.4 99 0.0 NW 30 37 16 20 - - 13.2
02/01:00pm 0.6 -7.6 0.5 99 0.0 WNW 33 44 18 24 - - 13.0
02/12:30pm 0.5 -6.0 0.4 99 0.0 WNW 24 30 13 16 - - 12.4
02/12:04pm 0.8 -9.4 0.7 99 0.0 WNW 44 63 24 34 - - 11.6
02/12:00pm 1.0 -10.3 0.9 99 0.0 NW 50 63 27 34 - - 11.6
02/11:53am 1.1 -8.9 1.0 99 0.0 NW 43 61 23 33 - - 11.2
02/11:30am 1.5 -8.1 1.4 99 0.0 NW 41 50 22 27 - - 9.8
02/11:12am 2.1 -8.3 2.0 99 0.0 NW 46 65 25 35 - - 8.6
02/11:00am 2.5 -9.7 2.4 99 0.0 NW 56 67 30 36 - - 8.0
02/10:43am 2.7 -8.0 2.6 99 0.0 NW 48 72 26 39 - - 6.8
02/10:32am 4.0 -4.7 3.9 99 0.0 NNW 39 57 21 31 - - 5.6
02/10:30am 3.9 -4.9 3.8 99 0.0 NNW 39 46 21 25 - - 5.2
02/10:25am 4.0 -4.7 3.9 99 0.0 NNW 39 48 21 26 - - 4.8
02/10:00am 4.1 -7.9 4.0 99 0.0 NNW 56 89 30 48 - - 3.2
02/09:30am 4.3 -7.2 4.2 99 0.0 NNW 54 74 29 40 - - 1.2
02/09:00am 4.5 -7.4 4.4 99 0.0 NNW 56 80 30 43 - - 9.6
02/08:31am 4.4 -6.7 4.3 99 0.0 NNW 52 72 28 39 - - 8.8
02/08:30am 4.4 -6.4 4.3 99 0.0 NNW 50 67 27 36 - - 8.8
02/08:05am 4.1 -8.4 4.0 99 0.0 NNW 59 78 32 42 - - 7.8
02/08:00am 4.2 -8.7 4.1 99 0.0 NNW 61 76 33 41 - - 7.6
02/07:33am 4.2 -7.7 4.1 99 0.0 NW 56 74 30 40 - - 6.8
02/07:30am 4.2 -7.9 4.1 99 0.0 NNW 57 74 31 40 - - 6.8
02/07:24am 4.2 -7.7 4.1 99 0.0 NNW 56 74 30 40 - - 6.8
02/07:00am 4.2 -7.4 4.1 99 0.0 NNW 54 69 29 37 - - 6.6
02/06:30am 4.2 -8.3 4.1 99 0.0 NW 59 83 32 45 - - 6.0
02/06:00am 4.4 -8.4 4.3 99 0.0 NNW 61 82 33 44 - - 5.2
02/05:30am 4.3 -10.1 4.2 99 0.0 NNW 69 89 37 48 - - 5.2
02/05:00am 4.4 -9.6 4.3 99 0.0 NNW 67 85 36 46 - - 4.8
02/04:30am 4.5 -8.0 3.9 96 0.3 NNW 59 78 32 42 - - 4.4
02/04:18am 4.4 -10.6 3.8 96 0.3 NNW 72 98 39 53 - - 4.4
02/04:00am 4.2 -7.9 4.1 99 0.0 NNW 57 76 31 41 - - 4.4
02/03:30am 3.9 -9.5 3.5 97 0.2 NNW 63 83 34 45 - - 4.2
02/03:00am 4.2 -10.0 3.2 93 0.4 NNW 67 91 36 49 - - 4.2
02/02:30am 3.8 -7.9 3.4 97 0.2 NNW 54 76 29 41 - - 4.2
02/02:24am 3.8 -8.8 3.4 97 0.2 NNW 59 82 32 44 - - 4.2
02/02:21am 3.8 -8.8 3.4 97 0.2 NNW 59 82 32 44 - - 4.2
02/02:01am 3.8 -6.3 3.5 98 0.1 NNW 46 67 25 36 - - 4.0
02/02:00am 3.8 -6.3 3.5 98 0.1 NNW 46 56 25 30 - - 4.0
02/01:46am 3.7 -6.0 3.1 96 0.3 NW 43 57 23 31 - - 4.0
02/01:32am 4.0 -8.3 3.3 95 0.3 NNW 57 76 31 41 - - 3.8
02/01:30am 4.0 -8.7 3.3 95 0.3 NNW 59 76 32 41 - - 3.8
02/01:00am 3.7 -8.4 3.4 98 0.1 NNW 56 74 30 40 - - 3.8
02/12:46am 3.7 -6.5 3.4 98 0.1 NNW 46 65 25 35 - - 3.6
02/12:30am 3.8 -8.2 3.5 98 0.1 NW 56 65 30 35 - - 3.6
02/12:00am 3.7 -9.4 3.0 95 0.3 NNW 61 74 33 40 - - 3.4
 
Date/Time
EST
Temp
°C
App
Temp
°C
Dew
Point
Rel
Hum
%
Delta-T
°C
Wind Press
QNH
hPa
Press
MSL
hPa
Rain
since 9 am
mm
Dir
 
Spd
km/h
Gust
km/h
Spd
kts
Gust
kts
01/11:33pm 3.7 -8.7 2.8 94 0.4 NW 57 80 31 43 - - 3.2
01/11:30pm 3.5 -8.3 2.8 95 0.3 NW 54 69 29 37 - - 3.2
01/11:05pm 3.5 -8.9 2.8 95 0.3 NNW 57 76 31 41 - - 3.2
01/11:00pm 3.6 -9.1 2.9 95 0.3 NNW 59 76 32 41 - - 3.2
01/10:31pm 3.2 -7.9 2.6 96 0.2 NNW 50 69 27 37 - - 3.2
01/10:30pm 3.2 -7.9 2.6 96 0.2 NNW 50 61 27 33 - - 3.2
01/10:03pm 3.1 -6.8 2.5 96 0.2 NW 44 63 24 34 - - 3.2
01/10:00pm 3.1 -6.8 2.5 96 0.2 NW 44 54 24 29 - - 3.2
01/09:30pm 2.7 -7.1 2.3 97 0.2 NNW 43 56 23 30 - - 3.2
01/09:14pm 3.4 -6.3 2.7 95 0.3 NW 43 61 23 33 - - 3.0
01/09:00pm 3.1 -5.5 2.7 97 0.2 NNW 37 54 20 29 - - 3.0
01/08:30pm 3.0 -8.8 2.6 97 0.2 NNW 54 78 29 42 - - 3.0
01/08:23pm 3.0 -7.3 2.7 98 0.1 NNW 46 78 25 42 - - 3.0
01/08:01pm 3.0 -6.0 2.4 96 0.2 NNW 39 57 21 31 - - 2.8
01/08:00pm 2.9 -6.5 2.3 96 0.2 NNW 41 57 22 31 - - 2.8
01/07:48pm 2.8 -5.5 2.4 97 0.2 NNW 35 54 19 29 - - 2.8
01/07:30pm 2.9 -4.4 2.2 95 0.3 NW 30 44 16 24 - - 2.8
01/07:10pm 2.7 -4.6 2.3 97 0.2 NNW 30 50 16 27 - - 2.8
01/07:00pm 2.5 -4.6 1.6 94 0.4 NW 28 39 15 21 - - 2.8
01/06:30pm 2.7 -5.9 2.6 99 0.0 NNW 37 46 20 25 - - 2.8
01/06:00pm 2.5 -3.7 2.4 99 0.0 NW 24 35 13 19 - - 2.8
01/05:36pm 2.3 -5.6 2.2 99 0.0 NW 33 52 18 28 - - 2.8
01/05:30pm 2.0 -6.0 1.6 97 0.2 NW 33 46 18 25 - - 2.6
01/05:00pm 3.6 -7.4 1.0 83 1.0 WNW 48 67 26 36 - - 1.4
01/04:49pm 3.7 -6.2 1.4 85 0.9 NW 43 61 23 33 - - 1.4
01/04:30pm 3.7 -5.8 1.9 88 0.7 NW 41 57 22 31 - - 1.4
01/04:27pm 3.7 -5.3 2.2 90 0.6 NW 39 57 21 31 - - 1.4
01/04:00pm 3.3 -7.1 2.3 93 0.4 NW 46 59 25 32 - - 1.4
01/03:30pm 3.6 -7.4 2.9 95 0.3 NW 50 69 27 37 - - 1.4
01/03:23pm 3.1 -8.4 2.2 94 0.4 NW 52 70 28 38 - - 1.4
01/03:15pm 3.1 -6.8 1.9 92 0.5 WNW 43 70 23 38 - - 1.2
01/03:13pm 3.2 -5.9 1.6 89 0.6 W 39 57 21 31 - - 1.0
01/03:06pm 3.5 -5.7 1.1 84 0.9 WNW 39 57 21 31 - - 1.0
01/03:01pm 5.1 -4.9 1.0 75 1.6 WNW 43 61 23 33 - - 0.8
01/03:00pm 5.3 -4.9 0.9 73 1.8 WNW 44 61 24 33 - - 0.8
01/02:30pm 5.6 -6.3 2.3 79 1.4 NW 54 74 29 40 - - 0.8
01/02:00pm 4.9 -7.7 1.2 77 1.5 NW 57 78 31 42 - - 0.8
01/01:30pm 5.9 -5.7 2.0 76 1.6 NW 52 70 28 38 - - 0.8
01/01:16pm 5.0 -5.8 2.2 82 1.2 WNW 48 67 26 36 - - 0.8
01/01:00pm 5.3 -6.1 3.0 85 1.0 NW 52 67 28 36 - - 0.8
01/12:39pm 4.9 -7.4 2.9 87 0.8 NW 57 76 31 41 - - 0.8
01/12:30pm 4.4 -8.0 2.6 88 0.7 NW 57 74 31 40 - - 0.8
01/12:10pm 3.4 -8.6 1.8 89 0.6 NW 54 72 29 39 - - 0.8
01/12:00pm 2.8 -8.7 2.5 98 0.1 NW 52 67 28 36 - - 0.8
01/11:51am 1.7 -10.4 1.1 96 0.2 NW 54 76 29 41 - - 0.8
01/11:48am 1.9 -9.8 1.2 95 0.3 WNW 52 76 28 41 - - 0.8
01/11:36am 2.0 -8.0 1.1 94 0.3 WNW 43 61 23 33 - - 0.6
01/11:30am 1.8 -8.8 0.5 91 0.5 WNW 46 69 25 37 - - 0.4
01/11:25am 2.6 -7.9 1.6 93 0.4 NW 46 69 25 37 - - 0.2
01/11:00am 3.1 -7.0 1.8 91 0.5 WNW 44 56 24 30 - - 0.2
01/10:30am 3.6 -6.2 2.4 92 0.5 NW 43 54 23 29 - - 0.2
01/10:00am 3.0 -6.9 1.7 91 0.5 WNW 43 50 23 27 - - 0.2
01/09:33am 2.1 -7.0 1.7 97 0.2 NW 39 59 21 32 - - 0.0
01/09:30am 2.3 -6.0 1.9 97 0.2 WNW 35 44 19 24 - - 0.0
01/09:00am 1.7 -8.4 1.4 98 0.1 NW 44 54 24 29 - - 19.0
01/08:31am 1.2 -8.9 0.5 95 0.3 WNW 43 61 23 33 - - 18.4
01/08:30am 1.5 -8.7 0.8 95 0.3 WNW 44 61 24 33 - - 18.4
01/08:00am 2.2 -9.0 2.1 99 0.0 NW 50 69 27 37 - - 18.2
01/07:40am 1.9 -11.0 1.8 99 0.0 NW 59 78 32 42 - - 18.0
01/07:30am 2.0 -10.3 1.9 99 0.0 NW 56 78 30 42 - - 18.0
01/07:05am 1.8 -8.2 1.1 95 0.3 WNW 43 65 23 35 - - 17.8
01/07:00am 1.7 -8.3 0.8 94 0.3 WNW 43 54 23 29 - - 17.8
01/06:34am 2.2 -6.1 2.1 99 0.0 WNW 35 56 19 30 - - 17.0
01/06:30am 2.3 -5.6 2.2 99 0.0 WNW 33 46 18 25 - - 16.8
01/06:00am 2.4 -7.1 1.8 96 0.2 W 41 65 22 35 - - 16.0
01/05:48am 3.2 -5.7 3.1 99 0.0 WNW 39 57 21 31 - - 15.8
01/05:30am 3.6 -4.8 3.5 99 0.0 WNW 37 50 20 27 - - 15.0
01/05:18am 3.6 -5.6 3.5 99 0.0 WNW 41 56 22 30 - - 14.8
01/05:00am 3.6 -6.5 3.5 99 0.0 NW 46 61 25 33 - - 14.2
01/04:30am 3.3 -8.8 3.2 99 0.0 NW 56 72 30 39 - - 13.2
01/04:22am 3.4 -5.8 3.3 99 0.0 NW 41 69 22 37 - - 12.6
01/04:00am 3.5 -6.3 3.4 99 0.0 NNW 44 52 24 28 - - 11.4
01/03:46am 3.4 -8.7 3.3 99 0.0 NNW 56 74 30 40 - - 10.8
01/03:30am 3.5 -10.3 3.4 99 0.0 NNW 65 87 35 47 - - 9.6
01/03:01am 4.0 -9.7 3.9 99 0.0 NNW 65 83 35 45 - - 7.0
01/03:00am 4.0 -10.1 3.9 99 0.0 NNW 67 83 36 45 - - 7.0
01/02:46am 4.2 -7.9 4.1 99 0.0 NNW 57 76 31 41 - - 6.0
01/02:30am 4.4 -7.1 4.3 99 0.0 NNW 54 67 29 36 - - 5.0
01/02:00am 4.6 -7.4 4.5 99 0.0 NNW 57 69 31 37 - - 3.8
01/01:30am 4.8 -6.3 4.7 99 0.0 NNW 52 65 28 35 - - 3.0
01/01:06am 4.9 -7.0 4.5 97 0.2 NNW 56 78 30 42 - - 2.8
01/01:00am 4.9 -7.5 4.6 98 0.1 NNW 59 74 32 40 - - 2.8
01/12:30am 5.0 -7.8 4.7 98 0.1 NNW 61 87 33 47 - - 2.6
01/12:00am 5.0 -7.4 4.9 99 0.0 NNW 59 78 32 42 - - 2.4
 
Date/Time
EST
Temp
°C
App
Temp
°C
Dew
Point
Rel
Hum
%
Delta-T
°C
Wind Press
QNH
hPa
Press
MSL
hPa
Rain
since 9 am
mm
Dir
 
Spd
km/h
Gust
km/h
Spd
kts
Gust
kts
31/11:49pm 4.9 -5.4 4.8 99 0.0 NNW 48 69 26 37 - - 2.4
31/11:30pm 4.8 -5.9 4.7 99 0.0 NNW 50 59 27 32 - - 2.2
31/11:17pm 4.8 -7.2 4.7 99 0.0 NNW 57 76 31 41 - - 2.0
31/11:00pm 4.9 -7.0 4.5 97 0.2 NNW 56 70 30 38 - - 1.6
31/10:30pm 5.4 -5.4 3.9 90 0.6 NNW 50 63 27 34 - - 1.4
31/10:00pm 5.2 -7.3 3.9 91 0.6 NNW 59 70 32 38 - - 1.4
31/09:30pm 5.0 -7.2 3.7 91 0.6 NNW 57 72 31 39 - - 1.4
31/09:00pm 5.0 -7.2 3.8 92 0.5 NNW 57 69 31 37 - - 1.4
31/08:30pm 4.9 -6.6 4.2 95 0.3 NNW 54 70 29 38 - - 1.4
31/08:12pm 4.8 -6.4 4.1 95 0.3 NNW 52 70 28 38 - - 1.4
31/08:00pm 4.7 -6.1 4.3 97 0.2 NNW 50 61 27 33 - - 1.4
31/07:49pm 4.6 -6.2 4.3 98 0.1 NNW 50 69 27 37 - - 1.4
31/07:30pm 4.5 -5.5 4.4 99 0.0 NNW 46 59 25 32 - - 1.4
31/07:00pm 4.4 -5.6 4.3 99 0.0 NNW 46 65 25 35 - - 1.4
31/06:42pm 4.4 -5.2 4.3 99 0.0 NNW 44 63 24 34 - - 1.2
31/06:30pm 4.4 -3.9 4.3 99 0.0 NNW 37 48 20 26 - - 1.2
31/06:01pm 4.4 -5.0 4.3 99 0.0 NW 43 61 23 33 - - 1.0
31/06:00pm 4.4 -5.0 4.3 99 0.0 NW 43 59 23 32 - - 1.0
31/05:30pm 4.4 -3.5 4.3 99 0.0 NNW 35 52 19 28 - - 1.0
31/05:06pm 4.5 -2.9 4.2 98 0.1 NNW 32 50 17 27 - - 0.8
31/05:00pm 4.5 -3.8 4.1 97 0.2 NNW 37 48 20 26 - - 0.8
31/04:38pm 4.7 -3.2 4.1 96 0.3 NNW 35 54 19 29 - - 0.6
31/04:30pm 4.8 -3.9 4.1 95 0.3 NNW 39 52 21 28 - - 0.6
31/04:00pm 5.2 -3.5 4.0 92 0.5 NNW 39 50 21 27 - - 0.6
31/03:30pm 5.8 -2.7 5.2 96 0.3 NNW 39 59 21 32 - - 0.6
31/03:27pm 6.1 -1.9 5.8 98 0.1 NNW 37 56 20 30 - - 0.6
31/03:00pm 5.4 -2.5 4.5 94 0.4 NNW 35 46 19 25 - - 0.2
31/02:30pm 6.1 -1.1 5.8 98 0.1 NNW 33 44 18 24 - - 0.2
31/02:00pm 5.9 -1.4 4.4 90 0.7 NNW 32 46 17 25 - - 0.0
31/01:30pm 6.9 -0.3 5.1 88 0.8 NNW 32 50 17 27 - - 0.0
31/01:23pm 6.5 -1.3 5.0 90 0.7 NW 35 54 19 29 - - 0.0
31/01:00pm 5.9 -2.1 3.9 87 0.9 NNW 35 46 19 25 - - 0.0
31/12:30pm 6.6 0.4 6.3 98 0.1 NNW 28 37 15 20 - - 0.0
31/12:14pm 5.0 -2.5 3.5 90 0.6 NNW 32 50 17 27 - - 0.0
31/12:00pm 5.0 -2.2 3.0 87 0.8 NNW 30 41 16 22 - - 0.0
31/11:30am 5.2 -1.4 4.3 94 0.4 NNW 28 35 15 19 - - 0.0
31/11:00am 4.6 -1.7 3.6 93 0.4 NW 26 33 14 18 - - 0.0
31/10:30am 4.3 -1.3 3.4 94 0.4 NW 22 32 12 17 - - 0.0
31/10:00am 3.9 -2.9 3.3 96 0.3 NW 28 33 15 18 - - 0.0
31/09:30am 3.3 -5.3 2.4 94 0.4 NW 37 50 20 27 - - 0.0
31/09:00am 3.7 -4.4 3.4 98 0.1 NW 35 46 19 25 - - 16.8
31/08:30am 2.5 -7.5 2.4 99 0.0 NW 44 54 24 29 - - 16.8
31/08:00am 2.0 -7.9 1.9 99 0.0 NW 43 50 23 27 - - 16.8
31/07:30am 1.9 -6.8 1.8 99 0.0 NW 37 43 20 23 - - 16.6
31/07:00am 1.5 -8.1 1.4 99 0.0 NW 41 50 22 27 - - 16.6
31/06:30am 1.5 -7.7 1.4 99 0.0 NW 39 48 21 26 - - 16.6
31/06:00am 1.6 -8.5 1.5 99 0.0 NW 44 54 24 29 - - 16.4
31/05:49am 1.7 -6.1 1.6 99 0.0 NW 32 50 17 27 - - 16.2
31/05:30am 1.6 -4.3 1.5 99 0.0 NW 22 28 12 15 - - 16.2
31/05:04am 1.9 -6.1 1.6 98 0.1 NW 33 43 18 23 - - 16.2
31/05:00am 1.9 -7.2 1.8 99 0.0 NW 39 48 21 26 - - 16.0
31/04:30am 1.4 -8.7 1.3 99 0.0 NW 44 54 24 29 - - 16.0
31/04:00am 1.7 -8.3 1.3 97 0.2 NW 43 52 23 28 - - 16.0
31/03:30am 2.1 -6.5 0.2 87 0.7 WNW 35 44 19 24 - - 16.0
31/03:00am 1.6 -8.0 1.3 98 0.1 NW 41 46 22 25 - - 16.0
31/02:30am 1.9 -6.6 0.6 91 0.5 WNW 35 44 19 24 - - 16.0
31/02:00am 1.8 -8.2 0.9 94 0.3 WNW 43 56 23 30 - - 16.0
31/01:30am 1.9 -7.0 0.9 93 0.4 WNW 37 46 20 25 - - 15.8
31/01:00am 1.9 -8.9 -0.3 85 0.8 WNW 46 65 25 35 - - 15.8
31/12:30am 2.5 -7.8 0.6 87 0.7 WNW 44 63 24 34 - - 15.6
31/12:29am 2.5 -7.6 0.6 87 0.7 WNW 43 61 23 33 - - 15.6
31/12:00am 2.2 -6.4 0.3 87 0.7 WNW 35 46 19 25 - - 15.6
 
Date/Time
EST
Temp
°C
App
Temp
°C
Dew
Point
Rel
Hum
%
Delta-T
°C
Wind Press
QNH
hPa
Press
MSL
hPa
Rain
since 9 am
mm
Dir
 
Spd
km/h
Gust
km/h
Spd
kts
Gust
kts
30/11:30pm 2.8 -6.1 0.5 85 0.9 WNW 37 50 20 27 - - 15.6
30/11:08pm 3.2 -4.8 1.6 89 0.6 W 33 48 18 26 - - 15.6
30/11:00pm 3.1 -5.7 1.6 90 0.6 WNW 37 54 20 29 - - 15.6
30/10:30pm 3.4 -5.1 1.1 85 0.9 WNW 35 56 19 30 - - 15.2
30/10:09pm 3.9 -2.4 1.4 84 1.0 WNW 24 54 13 29 - - 15.2
30/10:00pm 4.0 -2.7 1.4 83 1.0 W 26 41 14 22 - - 15.2
30/09:38pm 3.7 -5.9 1.3 84 1.0 W 41 59 22 32 - - 15.2
30/09:30pm 3.7 -6.3 1.1 83 1.0 W 43 57 23 31 - - 15.2
30/09:00pm 3.5 -6.0 1.5 87 0.8 W 41 63 22 34 - - 15.2
30/08:32pm 4.0 -3.2 2.8 92 0.5 WSW 30 57 16 31 - - 15.2
30/08:30pm 4.2 -2.6 3.2 93 0.4 W 28 48 15 26 - - 15.2

Other Formats:

Comma delimited format used in spreadsheet applications
http://www.bom.gov.au/fwo/IDT60801/IDT60801.95958.axf

JavaScript Object Notation format (JSON) in row-major order
http://www.bom.gov.au/fwo/IDT60801/IDT60801.95958.json